createdAt,value
2017-12-20T16:25:51.195Z,89.40
2017-12-20T16:28:18.722Z,89.80
2017-12-20T16:30:47.035Z,90.40
2017-12-20T16:33:14.534Z,90.20
2017-12-20T16:35:42.051Z,90.00
2017-12-20T16:38:09.541Z,89.90
2017-12-20T16:40:37.035Z,89.70
2017-12-20T16:43:04.564Z,89.50
2017-12-20T16:45:32.103Z,89.50
2017-12-20T16:47:59.585Z,89.60
2017-12-20T16:50:27.067Z,89.70
2017-12-20T16:52:54.588Z,89.90
2017-12-20T16:55:22.074Z,89.90
2017-12-20T16:57:49.597Z,89.80
2017-12-20T17:00:17.861Z,90.20
2017-12-20T17:02:45.400Z,90.00
2017-12-20T17:05:12.895Z,90.00
2017-12-20T17:07:40.387Z,89.50
2017-12-20T17:10:07.905Z,89.80
2017-12-20T17:12:35.451Z,89.90
2017-12-20T17:15:02.950Z,89.80
2017-12-20T17:17:30.435Z,90.00
2017-12-20T17:19:58.717Z,90.20
2017-12-20T17:22:26.233Z,90.20
2017-12-20T17:24:53.803Z,90.50
2017-12-20T17:27:22.025Z,90.30
2017-12-20T17:29:49.590Z,90.20
2017-12-20T17:32:17.069Z,90.00
2017-12-20T17:34:44.592Z,89.50
2017-12-20T17:37:12.970Z,89.50
2017-12-20T17:39:40.486Z,88.70
2017-12-20T17:42:07.999Z,89.40
2017-12-20T17:44:36.271Z,88.60
2017-12-20T17:47:03.792Z,88.40
2017-12-20T17:49:31.285Z,88.20
2017-12-20T17:51:58.790Z,88.40
2017-12-20T17:54:27.042Z,88.30
2017-12-20T17:56:54.609Z,88.20
2017-12-20T17:59:22.087Z,88.50
2017-12-20T18:01:50.378Z,89.10
2017-12-20T18:04:18.707Z,90.00
2017-12-20T18:06:46.191Z,89.10
2017-12-20T18:09:13.716Z,89.00
2017-12-20T18:11:41.199Z,88.90
2017-12-20T18:14:08.730Z,88.70
2017-12-20T18:16:36.228Z,88.30
2017-12-20T18:19:03.763Z,88.30
2017-12-20T18:21:31.263Z,88.00
2017-12-20T18:23:58.765Z,88.20
2017-12-20T18:26:27.152Z,88.10
2017-12-20T18:28:55.410Z,87.90
2017-12-20T18:31:22.936Z,87.80
2017-12-20T18:33:50.430Z,87.70
2017-12-20T18:36:17.936Z,87.70
2017-12-20T18:38:45.447Z,87.70
2017-12-20T18:41:12.956Z,87.40
2017-12-20T18:43:40.483Z,87.70
2017-12-20T18:46:07.989Z,87.70
2017-12-20T18:48:35.475Z,87.70
2017-12-20T18:51:02.988Z,87.70
2017-12-20T18:53:31.250Z,88.10
2017-12-20T18:55:59.660Z,87.60
2017-12-20T18:58:27.921Z,87.80
2017-12-20T19:00:55.394Z,87.50
2017-12-20T19:03:23.674Z,87.80
2017-12-20T19:05:51.983Z,87.70
2017-12-20T19:08:19.521Z,87.40
2017-12-20T19:10:47.761Z,87.80
2017-12-20T19:13:15.245Z,87.40
2017-12-20T19:15:42.771Z,87.50
2017-12-20T19:18:10.251Z,87.70
2017-12-20T19:20:37.772Z,87.40
2017-12-20T19:23:05.302Z,87.50
2017-12-20T19:25:32.791Z,87.40
2017-12-20T19:28:01.287Z,86.50
2017-12-20T19:30:28.780Z,86.50
2017-12-20T19:32:56.299Z,86.80
2017-12-20T19:35:24.578Z,86.20
2017-12-20T19:37:52.837Z,85.80
2017-12-20T19:40:20.349Z,85.80
2017-12-20T19:42:47.861Z,86.60
2017-12-20T19:45:15.352Z,87.00
2017-12-20T19:47:43.657Z,87.60
2017-12-20T19:50:11.178Z,87.50
2017-12-20T19:52:38.661Z,87.30
2017-12-20T19:55:06.948Z,87.30
2017-12-20T19:57:34.430Z,87.40
2017-12-20T20:00:01.905Z,87.40
2017-12-20T20:02:29.414Z,87.10
2017-12-20T20:04:57.679Z,87.30
2017-12-20T20:07:25.210Z,87.20
2017-12-20T20:09:52.692Z,87.30
2017-12-20T20:12:20.179Z,86.90
2017-12-20T20:14:47.702Z,86.60
2017-12-20T20:17:15.218Z,86.90
2017-12-20T20:19:43.483Z,86.80
2017-12-20T20:22:10.990Z,87.60
2017-12-20T20:24:38.523Z,86.60
2017-12-20T20:27:06.790Z,86.30
2017-12-20T20:29:34.319Z,86.30
2017-12-20T20:32:01.803Z,85.90
2017-12-20T20:34:29.284Z,85.60
2017-12-20T20:36:56.789Z,85.30
2017-12-20T20:39:24.285Z,85.10
2017-12-20T20:41:51.801Z,84.80
2017-12-20T20:44:19.307Z,85.00
2017-12-20T20:46:47.994Z,85.30
2017-12-20T20:49:15.507Z,85.30
2017-12-20T20:51:43.759Z,85.30
2017-12-20T20:54:11.307Z,85.30
2017-12-20T20:56:38.872Z,85.10
2017-12-20T20:59:06.367Z,85.40
2017-12-20T21:01:34.651Z,85.60
2017-12-20T21:04:02.928Z,85.70
2017-12-20T21:06:31.205Z,86.20
2017-12-20T21:08:58.731Z,85.50
2017-12-20T21:11:26.222Z,85.50
2017-12-20T21:13:53.730Z,86.00
2017-12-20T21:16:21.257Z,85.00
2017-12-20T21:18:48.735Z,84.80
2017-12-20T21:21:17.027Z,83.90
2017-12-20T21:23:44.559Z,83.90
2017-12-20T21:26:12.103Z,83.70
2017-12-20T21:28:39.631Z,84.00
2017-12-20T21:31:07.156Z,84.20
2017-12-20T21:33:35.446Z,84.80
2017-12-20T21:36:03.712Z,84.90
2017-12-20T21:38:31.961Z,84.60
2017-12-20T21:40:59.483Z,84.60
2017-12-20T21:43:26.985Z,84.70
2017-12-20T21:45:54.557Z,84.70
2017-12-20T21:48:22.071Z,84.90
2017-12-20T21:50:49.578Z,85.40
2017-12-20T21:53:17.061Z,85.70
2017-12-20T21:55:44.579Z,85.60
2017-12-20T21:58:12.066Z,85.40
2017-12-20T22:00:39.592Z,85.50
2017-12-20T22:03:07.081Z,85.20
2017-12-20T22:05:34.586Z,85.00
2017-12-20T22:08:02.088Z,84.80
2017-12-20T22:10:29.627Z,84.80
2017-12-20T22:12:57.883Z,85.10
2017-12-20T22:15:25.383Z,85.00
2017-12-20T22:17:52.911Z,85.60
2017-12-20T22:20:20.390Z,87.10
2017-12-20T22:22:47.872Z,87.10
2017-12-20T22:25:15.412Z,87.30
2017-12-20T22:27:43.690Z,86.80
2017-12-20T22:30:11.359Z,86.40
2017-12-20T22:32:39.610Z,87.70
2017-12-20T22:35:07.127Z,87.30
2017-12-20T22:37:34.638Z,88.60
2017-12-20T22:40:02.126Z,88.20
2017-12-20T22:42:29.648Z,87.50
2017-12-20T22:44:57.123Z,88.30
2017-12-20T22:47:24.639Z,87.40
2017-12-20T22:49:52.908Z,86.80
2017-12-20T22:52:21.166Z,86.80
2017-12-20T22:54:48.682Z,86.90
2017-12-20T22:57:16.172Z,86.90
2017-12-20T22:59:43.655Z,86.70
2017-12-20T23:02:11.175Z,86.60
2017-12-20T23:04:38.694Z,86.50
2017-12-20T23:07:06.966Z,86.10
2017-12-20T23:09:34.444Z,86.00
2017-12-20T23:12:02.811Z,86.90
2017-12-20T23:14:30.364Z,86.10
2017-12-20T23:16:57.895Z,86.30
2017-12-20T23:19:25.383Z,86.50
2017-12-20T23:21:52.915Z,86.20
2017-12-20T23:24:20.437Z,85.80
2017-12-20T23:26:47.914Z,85.90
2017-12-20T23:29:16.166Z,85.80
2017-12-20T23:31:43.695Z,85.90
2017-12-20T23:34:11.183Z,85.40
2017-12-20T23:36:38.794Z,85.10
2017-12-20T23:39:06.327Z,85.00
2017-12-20T23:41:33.821Z,85.70
2017-12-20T23:44:02.104Z,86.90
2017-12-20T23:46:29.590Z,87.00
2017-12-20T23:48:57.112Z,87.20
2017-12-20T23:51:25.403Z,87.50
2017-12-20T23:53:53.655Z,87.10
2017-12-20T23:56:21.170Z,87.10
2017-12-20T23:58:48.670Z,86.60
